Impacts TAF Board
For situational awareness. Not to be used for flight planning purposes.
IDs:

KDTW - Detroit Metro/Wayne, MI, US

Issued at 1120 UTC 21 Sep 2018
Updated at 1127 UTC 21 Sep 2018
Potential Impact None Slight Moderate High
Time1053Z 21/12Z 21/13Z 21/14Z 21/15Z 21/16Z 21/17Z 21/18Z 21/19Z 21/20Z 21/21Z 21/22Z 21/23Z 22/00Z>>
Type OBS PRVL PRVL PRVL PRVL PRVL
  [TEMP]  
PRVL
  [TEMP]  
PRVL
  [TEMP]  
PRVL PRVL PRVL PRVL PRVL PRVL
VIS 8 >6 >6 >6 >6 >6
  [5]  
>6
  [5]  
>6
  [5]  
>6 >6 >6 >6 >6 >6
CIG 250 -- -- 100 100 50
  [35]  
50
  [35]  
50
  [35]  
50 50 50 25 25 25
Cover BKN SCT SCT BKN BKN BKN
  [OVC]  
BKN
  [OVC]  
BKN
  [OVC]  
BKN BKN BKN BKN BKN BKN
FltCat VFR VFR VFR VFR VFR VFR
  [MVFR]  
VFR
  [MVFR]  
VFR
  [MVFR]  
VFR VFR VFR MVFR MVFR MVFR
WX -- -- -- -- -- --
  [-SHRA]  
--
  [-SHRA]  
--
  [-SHRA]  
-- -- -- -- -- --
WDir 200 190 190 230 230 250
[250]
250
[250]
250
[250]
250 250 250 290 290 290
WSpd 11 12 12 18 18 20
  [20]  
20
  [20]  
20
  [20]  
20 20 20 16 16 16
WGst -- 20 20 28 28 32
  [32]  
32
  [32]  
32
  [32]  
32 32 32 24 24 24
Raw TAF
KDTW 211120Z 2112/2218 19012G20KT P6SM SCT070 SCT150 WS020/20045KT
  FM211400 23018G28KT P6SM BKN100
  FM211600 25020G32KT P6SM BKN050 BKN100
  TEMPO 2116/2119 5SM -SHRA BKN035 OVC050
  FM212200 29016G24KT P6SM BKN025
  FM220400 33012KT P6SM SCT025


Raw METAR
KDTW 211053Z 20011KT 8SM FEW150 BKN250 23/19 A2986 RMK AO2 SLP105 T02330189
KDTW 210953Z 20010KT 8SM SCT150 OVC250 24/19 A2987 RMK AO2 SLP109 T02390194
KDTW 210853Z 19008KT 7SM SCT150 OVC250 24/19 A2989 RMK AO2 SLP115 T02390194 56005

METAR Board
Radar Display
Forecast Discussion
For situational awareness. Not to be used for flight planning purposes.